createdAt,value
2022-10-31T00:00:48.120Z,11.30
2022-10-31T00:03:16.459Z,11.40
2022-10-31T00:05:45.224Z,11.40
2022-10-31T00:08:13.155Z,11.40
2022-10-31T00:10:43.087Z,11.40
2022-10-31T00:13:11.981Z,11.50
2022-10-31T00:15:41.208Z,11.40
2022-10-31T00:18:11.008Z,11.40
2022-10-31T00:20:40.082Z,11.40
2022-10-31T00:23:08.700Z,11.40
2022-10-31T00:25:39.496Z,11.40
2022-10-31T00:28:11.414Z,11.40
2022-10-31T00:30:39.444Z,11.40
2022-10-31T00:33:07.292Z,11.40
2022-10-31T00:35:35.334Z,11.40
2022-10-31T00:38:03.196Z,11.40
2022-10-31T00:40:31.062Z,11.40
2022-10-31T00:42:59.500Z,11.40
2022-10-31T00:45:28.939Z,11.30
2022-10-31T00:47:56.917Z,11.20
2022-10-31T00:50:24.906Z,11.20
2022-10-31T00:52:52.930Z,11.10
2022-10-31T00:55:20.817Z,11.00
2022-10-31T00:57:48.917Z,10.90
2022-10-31T01:00:17.495Z,10.80
2022-10-31T01:02:47.091Z,10.60
2022-10-31T01:05:15.282Z,10.50
2022-10-31T01:07:44.107Z,10.50
2022-10-31T01:10:13.144Z,10.40
2022-10-31T01:12:42.988Z,10.40
2022-10-31T01:15:12.270Z,10.40
2022-10-31T01:17:40.206Z,10.40
2022-10-31T01:20:11.504Z,10.40
2022-10-31T01:22:39.558Z,10.40
2022-10-31T01:25:09.268Z,10.40
2022-10-31T01:27:37.406Z,10.40
2022-10-31T01:30:06.301Z,10.50
2022-10-31T01:32:34.173Z,10.50
2022-10-31T01:35:02.067Z,10.50
2022-10-31T01:37:32.662Z,10.50
2022-10-31T01:40:00.538Z,10.50
2022-10-31T01:42:28.367Z,10.40
2022-10-31T01:45:01.773Z,10.40
2022-10-31T01:47:40.082Z,10.30
2022-10-31T01:50:14.687Z,10.30
2022-10-31T01:52:47.646Z,10.20
2022-10-31T01:55:20.344Z,10.20
2022-10-31T01:57:53.432Z,10.10
2022-10-31T02:00:22.946Z,10.10
2022-10-31T02:02:52.183Z,10.10
2022-10-31T02:05:24.188Z,10.10
2022-10-31T02:07:59.119Z,10.10
2022-10-31T02:10:29.200Z,10.10
2022-10-31T02:13:00.524Z,10.10
2022-10-31T02:15:30.300Z,10.10
2022-10-31T02:17:58.685Z,10.10
2022-10-31T02:20:31.709Z,10.20
2022-10-31T02:23:38.486Z,10.20
2022-10-31T02:26:56.287Z,10.20
2022-10-31T02:29:55.282Z,10.30
2022-10-31T02:32:31.433Z,10.30
2022-10-31T02:35:05.595Z,10.40
2022-10-31T02:37:40.044Z,10.40
2022-10-31T02:40:16.708Z,10.50
2022-10-31T02:42:51.927Z,10.50
2022-10-31T02:45:27.931Z,10.50
2022-10-31T02:48:02.712Z,10.50
2022-10-31T02:50:34.522Z,10.50
2022-10-31T02:53:03.842Z,10.60
2022-10-31T02:56:00.610Z,10.50
2022-10-31T02:58:33.278Z,10.40
2022-10-31T03:01:23.910Z,10.40
2022-10-31T03:04:06.792Z,10.30
2022-10-31T03:06:41.043Z,10.30
2022-10-31T03:09:14.115Z,10.40
2022-10-31T03:11:48.158Z,10.40
2022-10-31T03:14:22.827Z,10.40
2022-10-31T03:16:52.831Z,10.20
2022-10-31T03:19:27.177Z,10.10
2022-10-31T03:21:59.311Z,10.00
2022-10-31T03:24:32.445Z,9.90
2022-10-31T03:27:02.449Z,9.80
2022-10-31T03:29:33.138Z,9.80
2022-10-31T03:32:04.854Z,9.80
2022-10-31T03:34:35.187Z,9.80
2022-10-31T03:37:07.688Z,9.70
2022-10-31T03:39:36.134Z,9.60
2022-10-31T03:42:08.275Z,9.50
2022-10-31T03:44:37.516Z,9.40
2022-10-31T03:47:06.162Z,9.30
2022-10-31T03:49:36.315Z,9.20
2022-10-31T03:52:11.355Z,9.20
2022-10-31T03:54:44.615Z,9.20
2022-10-31T03:57:19.002Z,9.20
2022-10-31T03:59:50.767Z,9.20
2022-10-31T04:02:23.083Z,9.30
2022-10-31T04:04:53.284Z,9.30
2022-10-31T04:07:23.347Z,9.50
2022-10-31T04:09:53.698Z,9.60
2022-10-31T04:12:22.540Z,9.60
2022-10-31T04:14:51.926Z,9.70
2022-10-31T04:17:23.122Z,9.80
2022-10-31T04:19:52.239Z,9.90
2022-10-31T04:22:20.032Z,9.90
2022-10-31T04:24:47.824Z,9.90
2022-10-31T04:27:15.572Z,9.90
2022-10-31T04:29:45.545Z,9.90
2022-10-31T04:32:16.245Z,10.00
2022-10-31T04:34:44.013Z,9.90
2022-10-31T04:37:13.091Z,9.90
2022-10-31T04:39:40.881Z,9.80
2022-10-31T04:42:08.639Z,9.80
2022-10-31T04:44:36.623Z,9.80
2022-10-31T04:47:04.411Z,9.90
2022-10-31T04:49:32.176Z,9.90
2022-10-31T04:51:59.919Z,9.80
2022-10-31T04:54:29.006Z,9.60
2022-10-31T04:56:56.761Z,9.50
2022-10-31T04:59:24.547Z,9.30
2022-10-31T05:01:52.429Z,9.20
2022-10-31T05:04:21.351Z,9.20
2022-10-31T05:06:49.183Z,9.20
2022-10-31T05:09:16.922Z,9.10
2022-10-31T05:11:46.052Z,9.10
2022-10-31T05:14:13.813Z,9.10
2022-10-31T05:16:41.542Z,9.10
2022-10-31T05:19:09.317Z,9.10
2022-10-31T05:21:37.083Z,9.10
2022-10-31T05:24:05.589Z,9.10
2022-10-31T05:26:33.343Z,9.00
2022-10-31T05:29:02.610Z,9.00
2022-10-31T05:31:30.321Z,9.00
2022-10-31T05:33:58.080Z,9.00
2022-10-31T05:36:25.820Z,9.00
2022-10-31T05:38:53.566Z,9.10
2022-10-31T05:41:21.299Z,9.10
2022-10-31T05:43:49.088Z,9.20
2022-10-31T05:46:18.161Z,9.10
2022-10-31T05:48:45.884Z,9.10
2022-10-31T05:51:14.608Z,9.00
2022-10-31T05:53:42.348Z,9.00
2022-10-31T05:56:10.092Z,8.90
2022-10-31T05:58:37.872Z,9.40
2022-10-31T06:01:06.418Z,9.00
2022-10-31T06:03:35.575Z,9.10
2022-10-31T06:06:03.339Z,9.20
2022-10-31T06:08:31.085Z,9.00
2022-10-31T06:10:58.819Z,9.00
2022-10-31T06:13:26.563Z,9.00
2022-10-31T06:15:54.343Z,9.00
2022-10-31T06:18:22.107Z,8.90
2022-10-31T06:20:51.219Z,8.80
2022-10-31T06:23:18.979Z,8.70
2022-10-31T06:25:50.779Z,8.60
2022-10-31T06:28:18.576Z,8.60
2022-10-31T06:30:47.149Z,8.70
2022-10-31T06:33:14.882Z,8.60
2022-10-31T06:35:47.171Z,8.60
2022-10-31T06:38:16.296Z,8.60
2022-10-31T06:40:44.083Z,8.70
2022-10-31T06:43:12.111Z,8.80
2022-10-31T06:45:39.899Z,8.90
2022-10-31T06:48:23.762Z,9.10
2022-10-31T06:50:55.803Z,9.30
2022-10-31T06:53:28.069Z,9.30
2022-10-31T06:55:57.209Z,9.40
2022-10-31T06:58:25.214Z,9.50
2022-10-31T07:00:53.084Z,9.50
2022-10-31T07:03:21.115Z,9.70
2022-10-31T07:05:48.846Z,9.80
2022-10-31T07:08:16.740Z,10.00
2022-10-31T07:10:53.566Z,10.10
2022-10-31T07:13:25.574Z,10.30
2022-10-31T07:15:54.909Z,10.40
2022-10-31T07:18:23.211Z,10.60
2022-10-31T07:20:50.935Z,10.80
2022-10-31T07:23:18.705Z,10.90
2022-10-31T07:25:47.864Z,11.10
2022-10-31T07:28:15.631Z,11.30
2022-10-31T07:30:43.447Z,11.60
2022-10-31T07:33:11.336Z,11.80
2022-10-31T07:35:39.097Z,12.20
2022-10-31T07:38:11.009Z,12.60
2022-10-31T07:40:38.783Z,13.00
2022-10-31T07:43:10.200Z,13.40
2022-10-31T07:45:41.666Z,13.80
2022-10-31T07:48:09.472Z,14.40
2022-10-31T07:50:37.228Z,15.00
2022-10-31T07:53:06.874Z,15.70
2022-10-31T07:55:35.736Z,16.30
2022-10-31T07:58:05.417Z,16.90
2022-10-31T08:00:35.664Z,17.50
2022-10-31T08:03:05.333Z,18.10
2022-10-31T08:05:33.946Z,18.70
2022-10-31T08:08:02.302Z,19.30
2022-10-31T08:10:30.623Z,19.90
2022-10-31T08:12:59.564Z,20.40
2022-10-31T08:15:27.745Z,20.80
2022-10-31T08:17:57.322Z,21.30
2022-10-31T08:20:25.322Z,21.90
2022-10-31T08:23:00.019Z,22.60
2022-10-31T08:25:31.043Z,23.40
2022-10-31T08:28:02.189Z,24.10
2022-10-31T08:30:33.302Z,25.00
2022-10-31T08:33:04.437Z,26.20
2022-10-31T08:35:32.699Z,27.20
2022-10-31T08:38:01.060Z,28.30
2022-10-31T08:40:31.111Z,29.20
2022-10-31T08:43:03.311Z,30.10
2022-10-31T08:45:32.400Z,31.00
2022-10-31T08:48:01.221Z,31.80
2022-10-31T08:50:32.402Z,32.40
2022-10-31T08:53:05.550Z,32.90
2022-10-31T08:55:35.163Z,33.20
2022-10-31T08:58:03.612Z,33.50
2022-10-31T09:00:31.708Z,33.90
2022-10-31T09:03:00.230Z,34.40
2022-10-31T09:05:29.722Z,34.70
2022-10-31T09:07:59.350Z,35.00
2022-10-31T09:10:29.028Z,35.10
2022-10-31T09:12:57.859Z,35.30
2022-10-31T09:15:26.123Z,35.50
2022-10-31T09:17:54.036Z,35.70
2022-10-31T09:20:22.315Z,36.00
2022-10-31T09:22:58.195Z,36.20
2022-10-31T09:25:26.301Z,36.40
2022-10-31T09:27:58.398Z,36.50
2022-10-31T09:30:26.719Z,36.70
2022-10-31T09:32:57.488Z,36.70
2022-10-31T09:35:25.940Z,36.50
2022-10-31T09:37:59.043Z,36.40
2022-10-31T09:40:32.967Z,36.50
2022-10-31T09:43:10.291Z,36.50
2022-10-31T09:45:43.512Z,36.70
2022-10-31T09:48:29.543Z,36.90
2022-10-31T09:51:02.175Z,37.30
2022-10-31T09:53:36.012Z,37.20
2022-10-31T09:56:07.239Z,37.00
2022-10-31T09:58:40.470Z,37.00
2022-10-31T10:01:16.431Z,37.10
2022-10-31T10:03:47.878Z,37.20
2022-10-31T10:06:20.606Z,37.10
2022-10-31T10:08:49.843Z,37.10
2022-10-31T10:11:34.819Z,36.80
2022-10-31T10:14:26.025Z,36.50
2022-10-31T10:17:09.219Z,36.40
2022-10-31T10:19:51.073Z,36.50
2022-10-31T10:22:29.710Z,36.70
2022-10-31T10:25:14.306Z,36.80
2022-10-31T10:27:51.860Z,37.00
2022-10-31T10:30:22.263Z,37.10
2022-10-31T10:32:53.607Z,36.70
2022-10-31T10:35:29.620Z,36.80
2022-10-31T10:38:04.137Z,36.80
2022-10-31T10:40:34.430Z,36.90
2022-10-31T10:43:20.759Z,36.90
2022-10-31T10:46:11.874Z,37.00
2022-10-31T10:48:48.859Z,37.00
2022-10-31T10:51:38.999Z,37.10
2022-10-31T10:54:40.795Z,37.10
2022-10-31T10:57:24.768Z,37.10
2022-10-31T10:59:53.315Z,36.80
2022-10-31T11:02:23.770Z,36.30
2022-10-31T11:04:53.804Z,35.60
2022-10-31T11:07:21.810Z,35.10
2022-10-31T11:09:49.762Z,34.60
2022-10-31T11:12:30.154Z,34.00
2022-10-31T11:15:01.129Z,33.30
2022-10-31T11:17:32.874Z,32.60
2022-10-31T11:20:07.310Z,31.70
2022-10-31T11:22:35.155Z,30.90
2022-10-31T11:25:02.922Z,30.20
2022-10-31T11:27:32.004Z,29.70
2022-10-31T11:30:07.427Z,29.20
2022-10-31T11:32:35.694Z,28.90
2022-10-31T11:35:11.299Z,28.50
2022-10-31T11:37:44.897Z,28.00
2022-10-31T11:40:19.952Z,27.60
2022-10-31T11:42:50.451Z,27.30
2022-10-31T11:45:29.228Z,27.00
2022-10-31T11:48:00.039Z,26.90
2022-10-31T11:50:33.735Z,26.80
2022-10-31T11:53:02.219Z,26.80
2022-10-31T11:55:35.482Z,26.70
2022-10-31T11:58:05.377Z,26.60
2022-10-31T12:00:35.157Z,26.40
2022-10-31T12:03:15.787Z,26.50
2022-10-31T12:05:46.051Z,26.50
2022-10-31T12:08:15.063Z,26.60
2022-10-31T12:10:52.248Z,26.70
2022-10-31T12:13:35.309Z,26.70
2022-10-31T12:16:11.168Z,26.70
2022-10-31T12:18:57.658Z,26.60
2022-10-31T12:21:46.959Z,26.50
2022-10-31T12:24:27.270Z,26.40
2022-10-31T12:27:08.948Z,26.30
2022-10-31T12:29:52.638Z,26.00
2022-10-31T12:32:30.257Z,26.00
2022-10-31T12:35:19.285Z,26.00
2022-10-31T12:37:58.981Z,26.00
2022-10-31T12:40:49.446Z,26.00
2022-10-31T12:43:32.422Z,26.20
2022-10-31T12:46:03.773Z,26.50
2022-10-31T12:48:58.445Z,26.70
2022-10-31T12:51:37.281Z,26.80
2022-10-31T12:54:48.097Z,26.60
2022-10-31T12:57:25.638Z,26.10
2022-10-31T12:59:56.799Z,25.60
2022-10-31T13:02:30.224Z,25.10
2022-10-31T13:05:02.111Z,24.80
2022-10-31T13:07:37.271Z,24.50
2022-10-31T13:10:12.488Z,24.50
2022-10-31T13:12:41.477Z,24.50
2022-10-31T13:15:18.958Z,24.60
2022-10-31T13:17:51.504Z,24.60
2022-10-31T13:20:25.253Z,24.60
2022-10-31T13:22:56.123Z,24.40
2022-10-31T13:25:26.807Z,24.10
2022-10-31T13:27:59.017Z,23.70
2022-10-31T13:30:29.595Z,23.60
2022-10-31T13:33:12.328Z,23.40
2022-10-31T13:35:45.000Z,23.10
2022-10-31T13:38:20.923Z,22.70
2022-10-31T13:40:55.845Z,22.40
2022-10-31T13:43:32.294Z,22.10
2022-10-31T13:46:00.239Z,21.80
2022-10-31T13:48:43.480Z,21.50
2022-10-31T13:51:12.771Z,21.30
2022-10-31T13:53:44.728Z,21.00
2022-10-31T13:56:19.409Z,20.90
2022-10-31T13:59:03.807Z,20.70
2022-10-31T14:01:33.196Z,20.50
2022-10-31T14:04:13.206Z,20.40
2022-10-31T14:06:53.036Z,20.30
2022-10-31T14:09:25.078Z,20.30
2022-10-31T14:11:54.300Z,20.30
2022-10-31T14:14:23.795Z,20.20
2022-10-31T14:16:58.543Z,20.20
2022-10-31T14:19:28.654Z,20.20
2022-10-31T14:21:56.514Z,20.20
2022-10-31T14:24:36.889Z,20.10
2022-10-31T14:27:26.548Z,20.00
2022-10-31T14:29:54.545Z,20.00
2022-10-31T14:32:24.576Z,19.90
2022-10-31T14:34:59.259Z,19.80
2022-10-31T14:37:46.395Z,19.70
2022-10-31T14:40:25.509Z,19.60
2022-10-31T14:43:20.106Z,19.50
2022-10-31T14:45:56.975Z,19.40
2022-10-31T14:48:45.666Z,19.30
2022-10-31T14:51:17.847Z,19.20
2022-10-31T14:53:49.473Z,19.10
2022-10-31T14:56:23.158Z,18.80
2022-10-31T14:58:51.565Z,18.90
2022-10-31T15:01:25.466Z,18.70
2022-10-31T15:04:18.119Z,18.70
2022-10-31T15:06:46.427Z,18.60
2022-10-31T15:09:24.422Z,18.60
2022-10-31T15:11:52.253Z,18.50
2022-10-31T15:14:25.687Z,18.40
2022-10-31T15:16:53.686Z,18.40
2022-10-31T15:19:25.943Z,18.20
2022-10-31T15:21:56.715Z,18.10
2022-10-31T15:24:27.396Z,18.10
2022-10-31T15:26:59.662Z,17.90
2022-10-31T15:29:30.478Z,17.80
2022-10-31T15:31:59.960Z,17.80
2022-10-31T15:34:31.884Z,17.70
2022-10-31T15:37:01.061Z,17.70
2022-10-31T15:39:28.845Z,17.70
2022-10-31T15:41:58.877Z,17.70
2022-10-31T15:44:29.776Z,17.60
2022-10-31T15:46:59.781Z,17.60
2022-10-31T15:49:36.157Z,17.60
2022-10-31T15:52:16.997Z,17.50
2022-10-31T15:54:49.445Z,17.50
2022-10-31T15:57:17.843Z,17.40
2022-10-31T15:59:49.216Z,17.40
2022-10-31T16:02:21.753Z,17.30
2022-10-31T16:04:52.391Z,17.30
2022-10-31T16:07:23.649Z,17.30
2022-10-31T16:09:53.919Z,17.20
2022-10-31T16:12:22.981Z,17.20
2022-10-31T16:14:51.733Z,17.10
2022-10-31T16:17:22.439Z,17.00
2022-10-31T16:19:53.917Z,16.90
2022-10-31T16:22:26.945Z,16.80
2022-10-31T16:24:59.462Z,16.60
2022-10-31T16:27:30.374Z,16.50
2022-10-31T16:30:02.219Z,16.50
2022-10-31T16:32:33.488Z,16.40
2022-10-31T16:35:02.981Z,16.40
2022-10-31T16:37:32.088Z,16.40
2022-10-31T16:39:59.858Z,16.30
2022-10-31T16:42:28.702Z,16.30
2022-10-31T16:44:56.613Z,16.20
2022-10-31T16:47:26.103Z,16.10
2022-10-31T16:50:00.630Z,16.00
2022-10-31T16:52:31.526Z,15.90
2022-10-31T16:55:08.427Z,15.90
2022-10-31T16:57:37.611Z,15.80
2022-10-31T17:00:06.587Z,15.70
2022-10-31T17:02:34.918Z,15.60
2022-10-31T17:05:03.064Z,15.60
2022-10-31T17:07:30.836Z,15.50
2022-10-31T17:09:58.554Z,15.40
2022-10-31T17:12:29.008Z,15.40
2022-10-31T17:14:57.522Z,15.30
2022-10-31T17:17:25.304Z,15.30
2022-10-31T17:19:53.046Z,15.20
2022-10-31T17:22:20.804Z,15.10
2022-10-31T17:24:48.567Z,15.00
2022-10-31T17:27:16.302Z,15.00
2022-10-31T17:29:45.407Z,14.90
2022-10-31T17:32:13.223Z,14.90
2022-10-31T17:34:40.958Z,14.80
2022-10-31T17:37:12.307Z,14.70
2022-10-31T17:39:40.258Z,14.60
2022-10-31T17:42:08.042Z,14.50
2022-10-31T17:44:35.843Z,14.50
2022-10-31T17:47:04.987Z,14.40
2022-10-31T17:49:32.739Z,14.30
2022-10-31T17:52:00.686Z,14.10
2022-10-31T17:54:28.440Z,14.10
2022-10-31T17:56:56.193Z,13.90
2022-10-31T17:59:23.958Z,13.90
2022-10-31T18:01:51.899Z,13.90
2022-10-31T18:04:21.542Z,13.80
2022-10-31T18:06:49.817Z,13.90
2022-10-31T18:09:17.884Z,13.80
2022-10-31T18:11:45.938Z,13.70
2022-10-31T18:14:13.714Z,13.60
2022-10-31T18:16:41.487Z,13.50
2022-10-31T18:19:09.324Z,13.40
2022-10-31T18:21:38.447Z,13.20
2022-10-31T18:24:07.301Z,13.10
2022-10-31T18:26:35.045Z,13.00
2022-10-31T18:29:03.424Z,13.00
2022-10-31T18:31:31.197Z,12.90
2022-10-31T18:33:59.393Z,13.00
2022-10-31T18:36:27.195Z,13.00
2022-10-31T18:38:56.299Z,13.10
2022-10-31T18:41:24.293Z,13.10
2022-10-31T18:43:55.930Z,13.10
2022-10-31T18:46:23.707Z,13.10
2022-10-31T18:48:51.460Z,13.10
2022-10-31T18:51:19.734Z,13.10
2022-10-31T18:53:51.880Z,13.00
2022-10-31T18:56:21.635Z,12.90
2022-10-31T18:58:49.733Z,12.90
2022-10-31T19:01:19.779Z,12.70
2022-10-31T19:03:52.698Z,12.70
2022-10-31T19:06:20.477Z,12.70
2022-10-31T19:08:48.291Z,12.70
2022-10-31T19:11:16.291Z,12.70
2022-10-31T19:13:45.409Z,12.70
2022-10-31T19:16:15.857Z,12.70
2022-10-31T19:18:45.078Z,12.70
2022-10-31T19:21:14.937Z,12.60
2022-10-31T19:23:43.490Z,12.50
2022-10-31T19:26:11.508Z,12.40
2022-10-31T19:28:40.969Z,12.40
2022-10-31T19:31:10.830Z,12.30
2022-10-31T19:33:38.995Z,12.40
2022-10-31T19:36:09.460Z,12.40
2022-10-31T19:38:37.918Z,12.40
2022-10-31T19:41:07.731Z,12.40
2022-10-31T19:43:35.495Z,12.40
2022-10-31T19:46:05.016Z,12.40
2022-10-31T19:48:37.127Z,12.20
2022-10-31T19:51:07.488Z,12.20
2022-10-31T19:53:35.887Z,12.20
2022-10-31T19:56:04.041Z,12.20
2022-10-31T19:58:33.482Z,12.20
2022-10-31T20:01:01.237Z,12.10
2022-10-31T20:03:29.018Z,12.10
2022-10-31T20:05:58.090Z,12.20
2022-10-31T20:08:25.826Z,12.10
2022-10-31T20:10:58.223Z,12.10
2022-10-31T20:13:26.628Z,12.10
2022-10-31T20:15:58.454Z,12.10
2022-10-31T20:18:26.646Z,11.40
2022-10-31T20:20:54.454Z,12.10
2022-10-31T20:23:23.532Z,12.10
2022-10-31T20:25:51.598Z,12.10
2022-10-31T20:28:19.355Z,12.20
2022-10-31T20:30:47.137Z,12.20
2022-10-31T20:33:14.884Z,12.20
2022-10-31T20:35:42.830Z,12.30
2022-10-31T20:38:11.051Z,12.30
2022-10-31T20:40:40.178Z,12.30
2022-10-31T20:43:08.227Z,12.20
2022-10-31T20:45:36.174Z,12.10
2022-10-31T20:48:04.697Z,12.00
2022-10-31T20:50:32.672Z,12.00
2022-10-31T20:53:00.665Z,12.00
2022-10-31T20:55:28.798Z,12.00
2022-10-31T20:57:58.605Z,12.10
2022-10-31T21:00:26.361Z,12.00
2022-10-31T21:02:54.140Z,12.00
2022-10-31T21:05:21.911Z,12.00
2022-10-31T21:10:22.319Z,12.00
2022-10-31T21:12:50.057Z,12.00
2022-10-31T21:15:19.158Z,11.90
2022-10-31T21:17:46.917Z,11.90
2022-10-31T21:20:14.688Z,12.00
2022-10-31T21:22:42.427Z,12.00
2022-10-31T21:25:10.299Z,12.00
2022-10-31T21:27:38.098Z,12.10
2022-10-31T21:30:06.896Z,12.00
2022-10-31T21:32:35.993Z,11.90
2022-10-31T21:35:03.816Z,11.80
2022-10-31T21:37:31.655Z,11.70
2022-10-31T21:39:59.425Z,11.60
2022-10-31T21:42:27.220Z,11.60
2022-10-31T21:44:54.960Z,11.60
2022-10-31T21:47:22.722Z,11.60
2022-10-31T21:49:51.799Z,11.60
2022-10-31T21:52:19.542Z,11.60
2022-10-31T21:54:46.333Z,11.60
2022-10-31T21:57:14.141Z,11.60
2022-10-31T21:59:45.655Z,11.50
2022-10-31T22:02:13.483Z,11.50
2022-10-31T22:04:41.744Z,11.40
2022-10-31T22:07:10.869Z,11.30
2022-10-31T22:09:38.801Z,11.20
2022-10-31T22:12:08.941Z,11.20
2022-10-31T22:14:36.775Z,11.10
2022-10-31T22:17:04.530Z,11.20
2022-10-31T22:19:32.296Z,11.20
2022-10-31T22:22:00.100Z,11.20
2022-10-31T22:24:29.235Z,11.20
2022-10-31T22:26:57.024Z,11.30
2022-10-31T22:29:24.794Z,11.40
2022-10-31T22:31:57.342Z,11.40
2022-10-31T22:34:27.497Z,11.50
2022-10-31T22:36:55.679Z,11.50
2022-10-31T22:39:23.492Z,11.60
2022-10-31T22:41:52.604Z,11.60
2022-10-31T22:44:20.374Z,11.60
2022-10-31T22:46:48.143Z,11.60
2022-10-31T22:49:16.420Z,11.50
2022-10-31T22:51:45.180Z,11.50
2022-10-31T22:54:14.839Z,11.60
2022-10-31T22:56:42.689Z,11.60
2022-10-31T22:59:14.659Z,11.70
2022-10-31T23:01:44.626Z,11.70
2022-10-31T23:04:13.074Z,11.80
2022-10-31T23:06:41.254Z,11.80
2022-10-31T23:09:09.386Z,11.80
2022-10-31T23:11:39.646Z,11.80
2022-10-31T23:14:09.649Z,11.80
2022-10-31T23:16:42.356Z,11.80
2022-10-31T23:19:11.444Z,11.80
2022-10-31T23:21:57.119Z,11.80
2022-10-31T23:24:28.231Z,11.80
2022-10-31T23:27:09.313Z,11.80
2022-10-31T23:29:40.284Z,11.80
2022-10-31T23:32:11.316Z,11.90
2022-10-31T23:34:39.055Z,11.90
2022-10-31T23:39:35.965Z,11.80
2022-10-31T23:42:04.160Z,11.70
2022-10-31T23:44:31.940Z,11.60
2022-10-31T23:47:00.162Z,11.50
2022-10-31T23:49:29.570Z,11.50
2022-10-31T23:51:57.782Z,11.40
2022-10-31T23:54:26.501Z,11.30
2022-10-31T23:56:54.902Z,11.20
2022-10-31T23:59:23.169Z,11.00
